createdAt,value
2023-05-05T00:00:12.337Z,11.32
2023-05-05T00:03:14.833Z,11.00
2023-05-05T00:06:17.274Z,11.04
2023-05-05T00:09:19.215Z,11.12
2023-05-05T00:12:21.202Z,11.09
2023-05-05T00:15:25.651Z,11.22
2023-05-05T00:18:28.400Z,11.06
2023-05-05T00:21:31.105Z,11.06
2023-05-05T00:24:33.350Z,11.10
2023-05-05T00:27:35.464Z,10.91
2023-05-05T00:30:39.807Z,10.74
2023-05-05T00:33:41.975Z,10.89
2023-05-05T00:36:43.893Z,10.83
2023-05-05T00:39:45.815Z,10.83
2023-05-05T00:42:52.383Z,10.80
2023-05-05T00:46:03.961Z,10.72
2023-05-05T00:49:06.853Z,10.84
2023-05-05T00:52:10.148Z,10.87
2023-05-05T00:55:12.229Z,10.76
2023-05-05T00:58:14.674Z,10.80
2023-05-05T01:01:17.461Z,10.79
2023-05-05T01:04:20.675Z,10.75
2023-05-05T01:07:43.687Z,10.66
2023-05-05T01:10:53.037Z,10.66
2023-05-05T01:14:11.541Z,10.72
2023-05-05T01:17:19.296Z,10.48
2023-05-05T01:20:23.726Z,10.52
2023-05-05T01:24:03.840Z,10.59
2023-05-05T01:27:26.068Z,10.58
2023-05-05T01:30:46.478Z,10.43
2023-05-05T01:33:51.951Z,10.58
2023-05-05T01:37:10.088Z,10.59
2023-05-05T01:40:20.072Z,10.28
2023-05-05T01:43:25.660Z,10.47
2023-05-05T01:46:28.364Z,10.35
2023-05-05T01:49:32.809Z,10.39
2023-05-05T01:52:37.606Z,10.17
2023-05-05T01:55:40.776Z,10.20
2023-05-05T01:58:45.054Z,10.17
2023-05-05T02:01:49.097Z,10.06
2023-05-05T02:04:53.433Z,10.12
2023-05-05T02:07:59.038Z,10.08
2023-05-05T02:11:01.423Z,10.17
2023-05-05T02:14:05.129Z,10.12
2023-05-05T02:17:08.672Z,10.27
2023-05-05T02:20:16.091Z,10.19
2023-05-05T02:23:17.957Z,10.09
2023-05-05T02:26:22.460Z,9.95
2023-05-05T02:29:38.129Z,9.88
2023-05-05T02:32:45.329Z,9.85
2023-05-05T02:35:49.951Z,9.81
2023-05-05T02:38:56.195Z,9.77
2023-05-05T02:42:05.743Z,9.49
2023-05-05T02:45:16.340Z,9.60
2023-05-05T02:48:22.025Z,9.71
2023-05-05T02:51:26.163Z,9.52
2023-05-05T02:54:28.686Z,9.57
2023-05-05T02:57:55.433Z,9.53
2023-05-05T03:01:26.793Z,9.56
2023-05-05T03:04:35.111Z,9.60
2023-05-05T03:08:01.307Z,9.66
2023-05-05T03:11:06.541Z,9.52
2023-05-05T03:14:14.342Z,9.73
2023-05-05T03:17:18.418Z,9.83
2023-05-05T03:20:21.794Z,9.96
2023-05-05T03:23:24.926Z,10.02
2023-05-05T03:26:31.987Z,10.21
2023-05-05T03:29:34.213Z,10.24
2023-05-05T03:32:37.130Z,10.31
2023-05-05T03:35:39.198Z,10.11
2023-05-05T03:38:43.742Z,10.27
2023-05-05T03:41:45.751Z,10.18
2023-05-05T03:44:53.414Z,9.96
2023-05-05T03:47:56.614Z,9.93
2023-05-05T03:50:58.759Z,10.02
2023-05-05T03:54:02.615Z,9.92
2023-05-05T03:57:04.677Z,9.91
2023-05-05T04:00:11.837Z,9.61
2023-05-05T04:03:17.326Z,9.90
2023-05-05T04:06:19.587Z,9.80
2023-05-05T04:09:21.674Z,9.85
2023-05-05T04:12:23.825Z,9.85
2023-05-05T04:15:26.087Z,10.02
2023-05-05T04:18:28.586Z,10.48
2023-05-05T04:21:31.525Z,10.57
2023-05-05T04:24:34.515Z,11.01
2023-05-05T04:27:36.615Z,11.50
2023-05-05T04:30:39.231Z,11.56
2023-05-05T04:33:41.565Z,11.09
2023-05-05T04:36:43.562Z,11.57
2023-05-05T04:39:46.580Z,11.50
2023-05-05T04:42:49.045Z,11.26
2023-05-05T04:45:55.895Z,11.53
2023-05-05T04:49:05.021Z,11.33
2023-05-05T04:52:07.646Z,11.07
2023-05-05T04:55:10.763Z,11.47
2023-05-05T04:58:12.700Z,11.81
2023-05-05T05:01:23.917Z,12.25
2023-05-05T05:04:27.323Z,11.87
2023-05-05T05:07:29.331Z,12.10
2023-05-05T05:10:31.211Z,12.09
2023-05-05T05:13:33.771Z,12.43
2023-05-05T05:16:35.787Z,11.63
2023-05-05T05:19:38.159Z,12.02
2023-05-05T05:22:41.047Z,11.67
2023-05-05T05:25:48.065Z,12.43
2023-05-05T05:28:53.184Z,12.39
2023-05-05T05:31:55.274Z,12.70
2023-05-05T05:34:57.650Z,13.10
2023-05-05T05:37:59.820Z,12.45
2023-05-05T05:41:06.357Z,12.51
2023-05-05T05:44:09.376Z,13.17
2023-05-05T05:47:11.614Z,12.98
2023-05-05T05:50:13.909Z,13.12
2023-05-05T05:53:16.268Z,12.59
2023-05-05T05:56:18.321Z,13.08
2023-05-05T05:59:20.283Z,12.95
2023-05-05T06:02:22.696Z,13.40
2023-05-05T06:05:25.011Z,13.21
2023-05-05T06:08:27.674Z,13.57
2023-05-05T06:11:33.180Z,13.84
2023-05-05T06:14:36.517Z,13.83
2023-05-05T06:17:38.743Z,13.89
2023-05-05T06:20:43.404Z,14.25
2023-05-05T06:23:49.802Z,14.45
2023-05-05T06:26:51.784Z,14.43
2023-05-05T06:29:53.682Z,14.63
2023-05-05T06:32:55.814Z,15.48
2023-05-05T06:35:57.740Z,15.53
2023-05-05T06:38:59.786Z,15.74
2023-05-05T06:42:02.123Z,15.92
2023-05-05T06:45:04.202Z,15.38
2023-05-05T06:48:06.320Z,15.95
2023-05-05T06:51:09.692Z,15.09
2023-05-05T06:54:11.678Z,16.03
2023-05-05T06:57:13.633Z,16.35
2023-05-05T07:00:17.006Z,16.07
2023-05-05T07:03:18.989Z,15.77
2023-05-05T07:06:21.021Z,16.03
2023-05-05T07:09:22.974Z,16.14
2023-05-05T07:12:24.977Z,15.65
2023-05-05T07:15:29.224Z,15.85
2023-05-05T07:18:31.731Z,16.10
2023-05-05T07:21:34.418Z,16.14
2023-05-05T07:24:36.535Z,16.27
2023-05-05T07:27:39.210Z,16.11
2023-05-05T07:30:41.553Z,16.78
2023-05-05T07:33:43.666Z,17.13
2023-05-05T07:36:45.561Z,16.21
2023-05-05T07:39:48.781Z,16.54
2023-05-05T07:42:50.919Z,17.09
2023-05-05T07:45:53.439Z,17.16
2023-05-05T07:48:55.403Z,17.93
2023-05-05T07:51:57.287Z,17.35
2023-05-05T07:54:59.125Z,17.04
2023-05-05T07:58:01.011Z,17.39
2023-05-05T08:01:03.049Z,17.35
2023-05-05T08:04:05.477Z,17.37
2023-05-05T08:07:09.920Z,17.76
2023-05-05T08:10:12.364Z,17.89
2023-05-05T08:13:14.485Z,17.84
2023-05-05T08:16:16.476Z,18.19
2023-05-05T08:19:28.557Z,17.97
2023-05-05T08:22:31.817Z,18.29
2023-05-05T08:25:33.843Z,18.21
2023-05-05T08:28:36.877Z,18.40
2023-05-05T08:31:38.971Z,18.25
2023-05-05T08:34:41.344Z,18.74
2023-05-05T08:37:43.458Z,18.77
2023-05-05T08:40:45.688Z,18.74
2023-05-05T08:43:48.388Z,18.53
2023-05-05T08:46:51.221Z,18.43
2023-05-05T08:49:55.734Z,18.58
2023-05-05T08:53:16.730Z,17.89
2023-05-05T08:56:20.096Z,18.99
2023-05-05T08:59:25.154Z,18.97
2023-05-05T09:02:30.058Z,18.57
2023-05-05T09:05:32.043Z,19.08
2023-05-05T09:08:34.171Z,19.29
2023-05-05T09:11:37.595Z,19.64
2023-05-05T09:14:39.622Z,19.59
2023-05-05T09:17:42.384Z,19.49
2023-05-05T09:20:44.512Z,19.83
2023-05-05T09:24:13.069Z,20.10
2023-05-05T09:27:23.395Z,19.51
2023-05-05T09:30:26.950Z,20.13
2023-05-05T09:33:33.601Z,20.13
2023-05-05T09:36:49.807Z,20.11
2023-05-05T09:39:56.111Z,18.92
2023-05-05T09:43:02.251Z,19.60
2023-05-05T09:46:08.364Z,19.86
2023-05-05T09:49:16.144Z,19.96
2023-05-05T09:52:19.125Z,20.16
2023-05-05T09:55:21.404Z,20.52
2023-05-05T09:58:27.769Z,20.56
2023-05-05T10:03:33.795Z,20.62
2023-05-05T10:07:08.031Z,19.16
2023-05-05T10:16:20.068Z,21.15
2023-05-05T10:19:24.483Z,21.33
2023-05-05T10:22:28.563Z,21.11
2023-05-05T10:25:35.293Z,21.04
2023-05-05T10:28:44.406Z,21.67
2023-05-05T10:31:49.998Z,22.00
2023-05-05T10:35:01.023Z,21.81
2023-05-05T10:38:04.473Z,22.01
2023-05-05T10:41:08.423Z,22.10
2023-05-05T10:44:11.584Z,22.15
2023-05-05T10:47:13.632Z,21.81
2023-05-05T10:50:41.685Z,20.63
2023-05-05T10:54:06.139Z,20.91
2023-05-05T10:57:10.938Z,20.61
2023-05-05T11:00:38.661Z,21.77
2023-05-05T11:03:40.931Z,21.76
2023-05-05T11:07:11.054Z,22.24
2023-05-05T11:10:15.804Z,22.15
2023-05-05T11:13:19.252Z,22.50
2023-05-05T11:16:44.592Z,22.56
2023-05-05T11:19:48.611Z,22.66
2023-05-05T11:23:03.033Z,21.51
2023-05-05T11:26:05.107Z,22.02
2023-05-05T11:29:07.148Z,21.56
2023-05-05T11:32:19.967Z,21.15
2023-05-05T11:35:21.982Z,21.61
2023-05-05T11:38:45.175Z,21.73
2023-05-05T11:42:02.570Z,20.93
2023-05-05T11:45:21.791Z,21.15
2023-05-05T11:48:25.050Z,20.84
2023-05-05T11:51:28.315Z,21.46
2023-05-05T11:54:31.312Z,21.42
2023-05-05T11:57:33.228Z,21.30
2023-05-05T12:00:36.572Z,20.63
2023-05-05T12:03:39.754Z,21.33
2023-05-05T12:06:43.002Z,21.82
2023-05-05T12:09:47.052Z,21.70
2023-05-05T12:12:49.493Z,21.54
2023-05-05T12:15:51.595Z,21.02
2023-05-05T12:19:05.750Z,21.21
2023-05-05T12:22:07.726Z,22.15
2023-05-05T12:25:10.127Z,22.58
2023-05-05T12:28:12.075Z,22.98
2023-05-05T12:31:14.420Z,23.05
2023-05-05T12:34:17.266Z,22.29
2023-05-05T12:37:19.607Z,21.46
2023-05-05T12:40:44.869Z,21.83
2023-05-05T12:43:47.692Z,21.85
2023-05-05T12:46:49.624Z,21.41
2023-05-05T12:49:52.766Z,21.79
2023-05-05T12:52:54.796Z,20.90
2023-05-05T12:55:56.680Z,21.14
2023-05-05T12:58:59.867Z,20.91
2023-05-05T13:02:01.944Z,20.83
2023-05-05T13:05:04.439Z,21.06
2023-05-05T13:08:06.798Z,20.67
2023-05-05T13:11:08.660Z,21.06
2023-05-05T13:14:10.904Z,21.35
2023-05-05T13:17:14.301Z,21.57
2023-05-05T13:20:16.520Z,21.35
2023-05-05T13:23:19.460Z,21.86
2023-05-05T13:26:21.425Z,21.65
2023-05-05T13:29:27.294Z,22.14
2023-05-05T13:32:31.515Z,22.74
2023-05-05T13:35:33.456Z,23.09
2023-05-05T13:38:36.583Z,21.65
2023-05-05T13:41:38.642Z,22.11
2023-05-05T13:44:40.617Z,22.09
2023-05-05T13:47:44.457Z,22.37
2023-05-05T13:50:47.175Z,22.21
2023-05-05T13:53:49.007Z,22.75
2023-05-05T13:56:50.920Z,22.43
2023-05-05T13:59:52.838Z,22.91
2023-05-05T14:02:55.206Z,22.95
2023-05-05T14:05:57.730Z,22.51
2023-05-05T14:08:59.776Z,22.95
2023-05-05T14:12:01.694Z,22.65
2023-05-05T14:15:04.148Z,22.57
2023-05-05T14:18:07.284Z,22.30
2023-05-05T14:21:09.554Z,22.19
2023-05-05T14:24:11.426Z,22.27
2023-05-05T14:27:13.358Z,21.65
2023-05-05T14:30:15.636Z,21.98
2023-05-05T14:33:17.525Z,21.96
2023-05-05T14:36:19.489Z,22.32
2023-05-05T14:40:03.109Z,22.07
2023-05-05T14:43:26.868Z,22.31
2023-05-05T14:46:28.906Z,21.98
2023-05-05T14:49:31.222Z,21.61
2023-05-05T14:52:33.382Z,21.87
2023-05-05T14:55:35.368Z,22.28
2023-05-05T14:58:37.683Z,22.63
2023-05-05T15:01:39.759Z,22.78
2023-05-05T15:04:41.689Z,22.26
2023-05-05T15:07:43.651Z,22.06
2023-05-05T15:10:46.249Z,22.41
2023-05-05T15:13:48.122Z,22.97
2023-05-05T15:16:50.023Z,23.09
2023-05-05T15:19:52.011Z,23.24
2023-05-05T15:22:55.163Z,23.05
2023-05-05T15:25:57.099Z,23.09
2023-05-05T15:28:59.337Z,23.20
2023-05-05T15:32:01.565Z,23.26
2023-05-05T15:35:03.996Z,23.49
2023-05-05T15:38:06.646Z,23.43
2023-05-05T16:15:28.070Z,22.48
2023-05-05T16:18:29.924Z,22.51
2023-05-05T16:21:31.847Z,22.38
2023-05-05T16:24:33.767Z,22.01
2023-05-05T16:27:35.620Z,21.93
2023-05-05T16:30:38.168Z,21.92
2023-05-05T16:33:41.337Z,21.72
2023-05-05T16:36:44.472Z,21.47
2023-05-05T16:39:46.816Z,21.30
2023-05-05T16:42:54.073Z,21.29
2023-05-05T16:45:58.100Z,21.21
2023-05-05T16:48:59.991Z,21.16
2023-05-05T16:52:02.081Z,20.93
2023-05-05T16:55:04.866Z,20.97
2023-05-05T16:58:06.991Z,20.94
2023-05-05T17:01:08.900Z,21.00
2023-05-05T17:04:12.105Z,20.88
2023-05-05T17:07:13.934Z,20.84
2023-05-05T17:10:16.157Z,20.65
2023-05-05T17:13:23.475Z,20.72
2023-05-05T17:16:25.502Z,20.66
2023-05-05T17:19:27.376Z,20.48
2023-05-05T17:22:29.473Z,20.32
2023-05-05T17:25:32.091Z,20.16
2023-05-05T17:28:34.369Z,19.91
2023-05-05T17:31:36.808Z,19.82
2023-05-05T17:34:39.095Z,19.68
2023-05-05T17:37:41.762Z,19.51
2023-05-05T17:40:43.803Z,19.36
2023-05-05T17:43:46.134Z,19.25
2023-05-05T17:46:47.999Z,19.07
2023-05-05T17:49:51.723Z,18.90
2023-05-05T17:52:53.609Z,18.76
2023-05-05T17:55:55.602Z,18.58
2023-05-05T17:58:57.912Z,18.45
2023-05-05T18:01:59.880Z,18.37
2023-05-05T18:05:01.886Z,18.20
2023-05-05T18:08:04.088Z,18.08
2023-05-05T18:11:06.208Z,17.96
2023-05-05T18:14:08.246Z,17.81
2023-05-05T18:17:10.215Z,17.78
2023-05-05T18:20:12.292Z,17.66
2023-05-05T18:23:14.401Z,17.63
2023-05-05T18:26:16.660Z,17.53
2023-05-05T18:29:19.864Z,17.50
2023-05-05T18:32:22.136Z,17.54
2023-05-05T18:35:24.202Z,17.43
2023-05-05T18:38:26.266Z,17.22
2023-05-05T18:41:28.176Z,17.24
2023-05-05T18:44:30.208Z,17.25
2023-05-05T18:47:33.794Z,17.19
2023-05-05T18:50:36.962Z,17.13
2023-05-05T18:53:41.890Z,16.98
2023-05-05T18:56:43.809Z,17.01
2023-05-05T18:59:45.946Z,16.98
2023-05-05T19:02:47.870Z,16.80
2023-05-05T19:05:49.851Z,16.62
2023-05-05T19:08:52.247Z,16.67
2023-05-05T19:11:58.142Z,16.65
2023-05-05T19:15:00.064Z,16.52
2023-05-05T19:18:02.569Z,16.15
2023-05-05T19:21:04.619Z,16.20
2023-05-05T19:24:08.400Z,16.15
2023-05-05T19:27:15.490Z,16.11
2023-05-05T19:30:18.469Z,16.30
2023-05-05T19:33:20.695Z,16.37
2023-05-05T19:36:23.029Z,16.32
2023-05-05T19:39:24.934Z,16.33
2023-05-05T19:42:27.503Z,16.20
2023-05-05T19:45:29.952Z,16.14
2023-05-05T19:48:31.974Z,16.19
2023-05-05T19:51:33.870Z,16.19
2023-05-05T19:54:36.267Z,16.17
2023-05-05T19:57:40.188Z,16.15
2023-05-05T20:00:42.490Z,16.12
2023-05-05T20:03:44.447Z,16.10
2023-05-05T20:06:46.376Z,16.07
2023-05-05T20:09:48.411Z,16.07
2023-05-05T20:12:50.612Z,16.08
2023-05-05T20:15:52.519Z,16.07
2023-05-05T20:18:54.554Z,15.87
2023-05-05T20:21:57.139Z,15.64
2023-05-05T20:24:59.019Z,15.54
2023-05-05T20:28:00.878Z,15.68
2023-05-05T20:31:03.048Z,15.70
2023-05-05T20:34:05.726Z,15.70
2023-05-05T20:37:07.611Z,15.75
2023-05-05T20:40:10.463Z,15.79
2023-05-05T20:43:12.660Z,15.82
2023-05-05T20:46:14.621Z,15.83
2023-05-05T20:49:16.529Z,15.80
2023-05-05T20:52:18.714Z,15.71
2023-05-05T20:55:20.617Z,15.74
2023-05-05T20:58:22.625Z,15.72
2023-05-05T21:01:24.843Z,15.54
2023-05-05T21:04:27.371Z,15.62
2023-05-05T21:07:31.278Z,15.61
2023-05-05T21:10:33.741Z,15.50
2023-05-05T21:13:36.217Z,15.45
2023-05-05T21:16:38.142Z,15.50
2023-05-05T21:19:40.165Z,15.53
2023-05-05T21:22:42.123Z,15.55
2023-05-05T21:25:44.088Z,15.40
2023-05-05T21:28:46.539Z,15.40
2023-05-05T21:31:48.481Z,15.62
2023-05-05T21:34:50.707Z,15.85
2023-05-05T21:37:52.587Z,15.81
2023-05-05T21:40:58.341Z,15.57
2023-05-05T21:44:00.279Z,15.02
2023-05-05T21:47:02.199Z,14.60
2023-05-05T21:50:04.603Z,14.86
2023-05-05T21:53:06.528Z,14.55
2023-05-05T21:56:08.674Z,14.32
2023-05-05T21:59:11.145Z,14.33
2023-05-05T22:02:13.570Z,13.86
2023-05-05T22:05:15.556Z,14.06
2023-05-05T22:08:18.054Z,14.22
2023-05-05T22:11:19.952Z,14.27
2023-05-05T22:14:21.975Z,14.02
2023-05-05T22:17:23.912Z,13.92
2023-05-05T22:20:25.897Z,14.10
2023-05-05T22:23:28.718Z,14.19
2023-05-05T22:26:30.630Z,14.01
2023-05-05T22:29:32.617Z,13.96
2023-05-05T22:32:34.803Z,13.98
2023-05-05T22:35:37.781Z,14.14
2023-05-05T22:38:39.704Z,13.93
2023-05-05T22:41:41.896Z,14.17
2023-05-05T22:44:43.863Z,14.18
2023-05-05T22:47:45.818Z,14.26
2023-05-05T22:50:47.735Z,14.44
2023-05-05T22:53:49.645Z,14.44
2023-05-05T22:56:51.915Z,14.06
2023-05-05T22:59:53.903Z,13.94
2023-05-05T23:02:56.161Z,13.60
2023-05-05T23:05:58.379Z,13.73
2023-05-05T23:09:00.415Z,13.85
2023-05-05T23:12:02.932Z,13.81
2023-05-05T23:15:05.689Z,13.97
2023-05-05T23:18:07.998Z,14.00
2023-05-05T23:21:10.451Z,13.80
2023-05-05T23:24:12.370Z,13.59
2023-05-05T23:27:14.378Z,13.53
2023-05-05T23:30:16.681Z,13.52
2023-05-05T23:33:19.458Z,13.50
2023-05-05T23:36:21.559Z,13.50
2023-05-05T23:39:23.490Z,13.63
2023-05-05T23:42:25.618Z,13.62
2023-05-05T23:45:27.974Z,13.59
2023-05-05T23:48:29.824Z,13.60
2023-05-05T23:51:31.734Z,13.60
2023-05-05T23:54:33.812Z,13.55
2023-05-05T23:57:36.322Z,13.52
